Etusivu
METAR-TAF:

METAR-TAF

Lentoasemat :

Tunis, Tunisia

Leveyspiiri: 36-50N, Pituuspiiri: 010-14E, korkeus merenpinnasta: 3 m

Tämänhetkinen sää

Tämä raportti tehtiin 20 minuuttia sitten, kello 05.00 UTC
Tuuli 10 kn lännestä
Lämpötila 13°C
Kosteus 72%
Ilmanpaine 1019 hPa
Näkyvyys 10 km tai enemmän
Hajanaisia pilviä 2600 ft:n korkeudessa

METAR: DTTA 270500Z 26010KT 9999 SCT026 13/08 Q1019

Aika: 06:20 (05:20 UTC)

Sääennuste

Tämä raportti tehtiin 6 tuntia ja 20 minuuttia sitten, kello 23.00 UTC
Ennuste voimassa 27. päivästä klo 00 UTC - 27. päivään klo 24 UTC
Tuuli 10 kn lännestä/luoteesta
Näkyvyys 10 km tai enemmän
Muutamia pilviä 3000 ft:n korkeudessa
Tulossa
27. päivästä klo 18 UTC - 27. päivään klo 20 UTC
Tuuli 4 kn lounaasta

TAF: DTTA 262300Z 2700/2724 29010KT 9999 FEW030 BECMG 2718/2720 23004KT

Säähavainnot ja -ennusteet yli 4000 lentoasemalta (METAR- ja TAF-raportit).

Käytössä olevat sääasemat on merkitty karttaan keltaisilla ja punaisilla pisteillä.

Aseta hiiri pisteen päälle nähdäksesi sääaseman nimen.

Klikkaa sitten nähdäksesi säähavainnot ja -ennusteet.

Kartan vaihtaminen: klikkaa mustalla rastilla varustettuja vihreitä pisteitä, niin voit zoomata sisään; viivalla varustettua vihreää pistettä, niin voit zoomata ulos tai vihreitä nuolia, niin pääset viereisille kartoille.


METAR-TAF: